TimeAKST,TemperatureF,Dew PointF,Humidity,Sea Level PressureIn,VisibilityMPH,Wind Direction,Wind SpeedMPH,Gust SpeedMPH,PrecipitationIn,Events,Conditions,WindDirDegrees,DateUTC
12:53 AM,-11.0,-17.0,75,30.41,10.0,Calm,Calm,-,N/A,,Partly Cloudy,0,2013-11-17 09:53:00
1:53 AM,-9.9,-16.1,74,30.41,10.0,East,3.5,-,N/A,,Partly Cloudy,80,2013-11-17 10:53:00
3:06 AM,-9.0,-14.1,79,30.38,1.0,Calm,Calm,-,N/A,,Mist,0,2013-11-17 12:06:00
3:19 AM,-7.1,-14.1,72,30.38,0.8,NW,3.5,-,N/A,,Mist,320,2013-11-17 12:19:00
3:39 AM,-6.0,-9.0,87,30.38,0.5,Calm,Calm,-,N/A,Fog,Light Freezing Fog,0,2013-11-17 12:39:00
3:53 AM,-5.1,-11.0,76,30.43,0.5,Calm,Calm,-,N/A,Fog,Light Freezing Fog,0,2013-11-17 12:53:00
4:18 AM,-7.1,-13.0,75,30.39,0.5,Calm,Calm,-,N/A,Fog,Light Freezing Fog,0,2013-11-17 13:18:00
4:26 AM,-7.1,-14.1,72,30.38,2.5,WNW,4.6,-,N/A,,Mist,290,2013-11-17 13:26:00
4:53 AM,-8.0,-14.1,75,30.43,5.0,South,3.5,-,N/A,,Mist,180,2013-11-17 13:53:00
5:53 AM,-9.9,-18.0,68,30.44,8.0,Calm,Calm,-,N/A,,Scattered Clouds,0,2013-11-17 14:53:00
6:53 AM,-14.1,-20.9,71,30.45,10.0,Calm,Calm,-,N/A,,Scattered Clouds,0,2013-11-17 15:53:00
7:53 AM,-9.0,-17.0,68,30.45,7.0,Calm,Calm,-,N/A,Snow,Light Snow,0,2013-11-17 16:53:00
8:53 AM,-5.1,-11.9,72,30.47,10.0,Calm,Calm,-,N/A,Snow,Light Snow,0,2013-11-17 17:53:00
9:53 AM,-4.0,-11.0,72,30.47,5.0,Calm,Calm,-,N/A,Snow,Light Snow,0,2013-11-17 18:53:00
10:53 AM,-2.9,-9.9,72,30.48,5.0,West,3.5,-,N/A,Snow,Light Snow,270,2013-11-17 19:53:00
11:53 AM,-0.9,-8.0,72,30.46,5.0,NE,5.8,-,N/A,Snow,Light Snow,50,2013-11-17 20:53:00
12:53 PM,1.0,-5.1,75,30.46,6.0,Calm,Calm,-,N/A,Snow,Light Snow,0,2013-11-17 21:53:00
1:53 PM,1.9,-4.0,76,30.45,6.0,Calm,Calm,-,N/A,Snow,Light Snow,0,2013-11-17 22:53:00
2:53 PM,1.9,-4.0,76,30.44,6.0,NNE,3.5,-,N/A,Snow,Light Snow,30,2013-11-17 23:53:00
3:53 PM,1.9,-4.0,76,30.43,6.0,Calm,Calm,-,N/A,Snow,Light Snow,0,2013-11-18 00:53:00
4:53 PM,1.9,-4.0,76,30.43,6.0,Calm,Calm,-,N/A,Snow,Light Snow,0,2013-11-18 01:53:00
5:53 PM,1.9,-2.9,80,30.43,6.0,Calm,Calm,-,N/A,Snow,Light Snow,0,2013-11-18 02:53:00
6:53 PM,1.9,-2.9,80,30.43,6.0,Calm,Calm,-,N/A,Snow,Light Snow,0,2013-11-18 03:53:00
7:53 PM,3.0,-2.9,76,30.42,6.0,Calm,Calm,-,N/A,Snow,Light Snow,0,2013-11-18 04:53:00
8:53 PM,3.0,-2.9,76,30.40,5.0,Calm,Calm,-,N/A,Snow,Light Snow,0,2013-11-18 05:53:00
9:53 PM,3.0,-2.9,76,30.39,5.0,Calm,Calm,-,N/A,Snow,Light Snow,0,2013-11-18 06:53:00
10:53 PM,1.9,-2.9,80,30.38,6.0,Calm,Calm,-,N/A,Snow,Light Snow,0,2013-11-18 07:53:00
11:53 PM,3.0,-2.0,80,30.37,6.0,Calm,Calm,-,N/A,Snow,Light Snow,0,2013-11-18 08:53:00